createdAt,value
2022-10-30T00:00:30.901Z,0.00
2022-10-30T00:01:30.891Z,0.00
2022-10-30T00:02:30.903Z,0.00
2022-10-30T00:03:30.822Z,0.00
2022-10-30T00:04:30.816Z,0.00
2022-10-30T00:05:30.840Z,0.00
2022-10-30T00:06:30.788Z,0.00
2022-10-30T00:07:30.800Z,0.00
2022-10-30T00:08:30.776Z,0.00
2022-10-30T00:09:30.760Z,0.00
2022-10-30T00:10:30.759Z,0.00
2022-10-30T00:11:30.761Z,0.00
2022-10-30T00:12:30.732Z,0.00
2022-10-30T00:13:30.733Z,0.00
2022-10-30T00:14:30.713Z,0.00
2022-10-30T00:15:30.692Z,0.00
2022-10-30T00:16:30.722Z,0.00
2022-10-30T00:17:30.682Z,0.00
2022-10-30T00:18:30.682Z,0.00
2022-10-30T00:19:30.658Z,0.00
2022-10-30T00:20:30.648Z,0.00
2022-10-30T00:21:30.643Z,0.00
2022-10-30T00:22:30.681Z,0.00
2022-10-30T00:23:30.605Z,0.00
2022-10-30T00:24:30.610Z,0.00
2022-10-30T00:25:30.585Z,0.00
2022-10-30T00:26:30.587Z,0.00
2022-10-30T00:27:30.591Z,0.00
2022-10-30T00:28:30.611Z,0.00
2022-10-30T00:29:30.553Z,0.00
2022-10-30T00:30:30.537Z,0.00
2022-10-30T00:31:30.526Z,0.00
2022-10-30T00:32:30.626Z,0.00
2022-10-30T00:33:30.533Z,0.00
2022-10-30T00:34:30.503Z,0.00
2022-10-30T00:35:30.483Z,0.00
2022-10-30T00:36:30.493Z,0.00
2022-10-30T00:37:30.463Z,0.00
2022-10-30T00:38:30.448Z,0.00
2022-10-30T00:39:30.459Z,0.00
2022-10-30T00:40:30.450Z,0.00
2022-10-30T00:41:30.561Z,0.00
2022-10-30T00:42:30.415Z,0.00
2022-10-30T00:43:30.410Z,0.00
2022-10-30T00:44:30.466Z,0.00
2022-10-30T00:45:30.391Z,0.00
2022-10-30T00:46:30.381Z,0.00
2022-10-30T00:47:30.349Z,0.00
2022-10-30T00:48:30.345Z,0.00
2022-10-30T00:49:30.369Z,0.00
2022-10-30T00:50:30.347Z,0.00
2022-10-30T00:51:30.307Z,0.00
2022-10-30T00:52:30.306Z,0.00
2022-10-30T00:53:30.301Z,0.00
2022-10-30T00:54:30.297Z,0.00
2022-10-30T00:55:30.271Z,0.00
2022-10-30T00:56:30.274Z,0.00
2022-10-30T00:57:30.250Z,0.00
2022-10-30T00:58:30.260Z,0.00
2022-10-30T00:59:30.253Z,0.00
2022-10-30T01:00:30.249Z,0.00
2022-10-30T01:01:30.461Z,0.00
2022-10-30T01:02:30.362Z,0.00
2022-10-30T01:03:30.186Z,0.00
2022-10-30T01:04:30.538Z,0.00
2022-10-30T01:05:30.168Z,0.00
2022-10-30T01:06:30.173Z,0.00
2022-10-30T01:07:30.145Z,0.00
2022-10-30T01:08:30.173Z,0.00
2022-10-30T01:09:30.294Z,0.00
2022-10-30T01:10:30.126Z,0.00
2022-10-30T01:11:30.123Z,0.00
2022-10-30T01:12:30.090Z,0.00
2022-10-30T01:13:30.088Z,0.00
2022-10-30T01:14:30.079Z,0.00
2022-10-30T01:15:30.062Z,0.00
2022-10-30T01:16:30.063Z,0.00
2022-10-30T01:17:30.051Z,0.00
2022-10-30T01:18:30.039Z,0.00
2022-10-30T01:19:30.007Z,0.00
2022-10-30T01:20:30.015Z,0.00
2022-10-30T01:21:30.027Z,0.00
2022-10-30T01:22:29.982Z,0.00
2022-10-30T01:23:29.963Z,0.00
2022-10-30T01:24:30.014Z,0.00
2022-10-30T01:25:29.963Z,0.00
2022-10-30T01:26:29.948Z,0.00
2022-10-30T01:27:30.028Z,0.00
2022-10-30T01:28:30.079Z,0.00
2022-10-30T01:29:29.916Z,0.00
2022-10-30T01:30:29.902Z,0.00
2022-10-30T01:31:29.883Z,0.00
2022-10-30T01:32:29.909Z,0.00
2022-10-30T01:33:29.884Z,0.00
2022-10-30T01:34:29.909Z,0.00
2022-10-30T01:35:29.854Z,0.00
2022-10-30T01:36:29.831Z,0.00
2022-10-30T01:37:29.828Z,0.00
2022-10-30T01:38:29.811Z,0.00
2022-10-30T01:39:29.815Z,0.00
2022-10-30T01:40:29.813Z,0.00
2022-10-30T01:41:29.771Z,0.00
2022-10-30T01:42:29.772Z,0.00
2022-10-30T01:43:29.749Z,0.00
2022-10-30T01:44:29.754Z,0.00
2022-10-30T01:45:29.758Z,0.00
2022-10-30T01:46:29.730Z,0.00
2022-10-30T01:47:29.707Z,0.00
2022-10-30T01:48:29.710Z,0.00
2022-10-30T01:49:29.691Z,0.00
2022-10-30T01:50:29.685Z,0.00
2022-10-30T01:51:29.685Z,0.00
2022-10-30T01:52:29.667Z,0.00
2022-10-30T01:53:29.649Z,0.00
2022-10-30T01:54:29.643Z,0.00
2022-10-30T01:55:29.636Z,0.00
2022-10-30T01:56:29.629Z,0.00
2022-10-30T01:57:29.600Z,0.00
2022-10-30T01:58:29.597Z,0.00
2022-10-30T01:59:29.581Z,0.00
2022-10-30T02:00:29.588Z,0.00
2022-10-30T02:01:29.756Z,0.00
2022-10-30T02:02:29.693Z,0.00
2022-10-30T02:03:29.542Z,0.00
2022-10-30T02:04:29.534Z,0.00
2022-10-30T02:05:29.523Z,0.00
2022-10-30T02:06:29.524Z,0.00
2022-10-30T02:07:29.489Z,0.00
2022-10-30T02:08:29.515Z,0.00
2022-10-30T02:09:29.469Z,0.00
2022-10-30T02:10:29.470Z,0.00
2022-10-30T02:11:29.466Z,0.00
2022-10-30T02:12:29.449Z,0.00
2022-10-30T02:13:29.438Z,0.00
2022-10-30T02:14:29.429Z,0.00
2022-10-30T02:15:29.398Z,0.00
2022-10-30T02:16:29.420Z,0.00
2022-10-30T02:17:29.402Z,0.00
2022-10-30T02:18:29.393Z,0.00
2022-10-30T02:19:29.364Z,0.00
2022-10-30T02:20:29.357Z,0.00
2022-10-30T02:21:29.343Z,0.00
2022-10-30T02:22:29.436Z,0.00
2022-10-30T02:23:29.313Z,0.00
2022-10-30T02:24:29.329Z,0.00
2022-10-30T02:25:29.291Z,0.00
2022-10-30T02:26:29.291Z,0.00
2022-10-30T02:27:29.303Z,0.00
2022-10-30T02:28:29.293Z,0.00
2022-10-30T02:29:29.257Z,0.00
2022-10-30T02:30:29.251Z,0.00
2022-10-30T02:31:29.255Z,0.00
2022-10-30T02:32:29.235Z,0.00
2022-10-30T02:33:29.229Z,0.00
2022-10-30T02:34:29.227Z,0.00
2022-10-30T02:35:29.219Z,0.00
2022-10-30T02:36:29.186Z,0.00
2022-10-30T02:37:29.170Z,0.00
2022-10-30T02:38:29.190Z,0.00
2022-10-30T02:39:29.147Z,0.00
2022-10-30T02:40:29.254Z,0.00
2022-10-30T02:41:29.127Z,0.00
2022-10-30T02:42:29.124Z,0.00
2022-10-30T02:43:29.104Z,0.00
2022-10-30T02:44:29.118Z,0.00
2022-10-30T02:45:29.091Z,0.00
2022-10-30T02:46:29.086Z,0.00
2022-10-30T02:47:29.060Z,0.00
2022-10-30T02:48:29.056Z,0.00
2022-10-30T02:49:29.055Z,0.00
2022-10-30T02:50:29.036Z,0.00
2022-10-30T02:51:29.053Z,0.00
2022-10-30T02:52:29.010Z,0.00
2022-10-30T02:53:28.996Z,0.00
2022-10-30T02:54:28.998Z,0.00
2022-10-30T02:55:29.011Z,0.00
2022-10-30T02:56:28.992Z,0.00
2022-10-30T02:57:28.951Z,0.00
2022-10-30T02:58:28.964Z,0.00
2022-10-30T02:59:28.929Z,0.00
2022-10-30T03:00:28.930Z,0.00
2022-10-30T03:01:29.071Z,0.00
2022-10-30T03:02:28.892Z,0.00
2022-10-30T03:03:28.879Z,0.00
2022-10-30T03:04:28.905Z,0.00
2022-10-30T03:05:28.856Z,0.00
2022-10-30T03:06:28.872Z,0.00
2022-10-30T03:07:28.843Z,0.00
2022-10-30T03:08:28.861Z,0.00
2022-10-30T03:09:28.843Z,0.00
2022-10-30T03:10:28.817Z,0.00
2022-10-30T03:11:28.921Z,0.00
2022-10-30T03:12:28.800Z,0.00
2022-10-30T03:13:28.780Z,0.00
2022-10-30T03:14:28.765Z,0.00
2022-10-30T03:15:28.744Z,0.00
2022-10-30T03:16:28.781Z,0.00
2022-10-30T03:17:28.875Z,0.00
2022-10-30T03:18:28.734Z,0.00
2022-10-30T03:19:28.711Z,0.00
2022-10-30T03:20:28.707Z,0.00
2022-10-30T03:21:28.726Z,0.00
2022-10-30T03:22:28.701Z,0.00
2022-10-30T03:23:28.667Z,0.00
2022-10-30T03:24:28.674Z,0.00
2022-10-30T03:25:28.644Z,0.00
2022-10-30T03:26:28.638Z,0.00
2022-10-30T03:27:28.622Z,0.00
2022-10-30T03:28:28.644Z,0.00
2022-10-30T03:29:28.608Z,0.00
2022-10-30T03:30:28.596Z,0.00
2022-10-30T03:31:28.579Z,0.00
2022-10-30T03:32:28.608Z,0.00
2022-10-30T03:33:28.585Z,0.00
2022-10-30T03:34:28.573Z,0.00
2022-10-30T03:35:28.542Z,0.00
2022-10-30T03:36:28.540Z,0.00
2022-10-30T03:37:28.530Z,0.00
2022-10-30T03:38:28.531Z,0.00
2022-10-30T03:39:28.490Z,0.00
2022-10-30T03:40:28.501Z,0.00
2022-10-30T03:41:28.474Z,0.00
2022-10-30T03:42:28.476Z,0.00
2022-10-30T03:43:28.473Z,0.00
2022-10-30T03:44:28.458Z,0.00
2022-10-30T03:45:28.434Z,0.00
2022-10-30T03:46:28.426Z,0.00
2022-10-30T03:47:28.407Z,0.00
2022-10-30T03:48:28.421Z,0.00
2022-10-30T03:49:28.435Z,0.00
2022-10-30T03:50:28.393Z,0.00
2022-10-30T03:51:28.381Z,0.00
2022-10-30T03:52:28.368Z,0.00
2022-10-30T03:53:28.350Z,0.00
2022-10-30T03:54:28.339Z,0.00
2022-10-30T03:55:28.343Z,0.00
2022-10-30T03:56:28.332Z,0.00
2022-10-30T03:57:28.323Z,0.00
2022-10-30T03:58:28.311Z,0.00
2022-10-30T03:59:28.278Z,0.00
2022-10-30T04:00:28.298Z,0.00
2022-10-30T04:01:28.465Z,0.00
2022-10-30T04:02:28.256Z,0.00
2022-10-30T04:03:28.228Z,0.00
2022-10-30T04:04:28.247Z,0.00
2022-10-30T04:05:28.240Z,0.00
2022-10-30T04:06:28.215Z,0.00
2022-10-30T04:07:28.213Z,0.00
2022-10-30T04:08:28.208Z,0.00
2022-10-30T04:09:28.182Z,0.00
2022-10-30T04:10:28.167Z,0.00
2022-10-30T04:11:28.221Z,0.00
2022-10-30T04:12:28.177Z,0.00
2022-10-30T04:13:28.163Z,0.00
2022-10-30T04:14:28.131Z,0.00
2022-10-30T04:15:28.126Z,0.00
2022-10-30T04:16:28.093Z,0.00
2022-10-30T04:17:28.115Z,0.00
2022-10-30T04:18:28.077Z,0.00
2022-10-30T04:19:28.085Z,0.00
2022-10-30T04:20:28.074Z,0.00
2022-10-30T04:21:28.049Z,0.00
2022-10-30T04:22:28.066Z,0.00
2022-10-30T04:23:28.040Z,0.00
2022-10-30T04:24:28.022Z,0.00
2022-10-30T04:25:28.010Z,0.00
2022-10-30T04:26:27.989Z,0.00
2022-10-30T04:27:28.028Z,0.00
2022-10-30T04:28:28.014Z,0.00
2022-10-30T04:29:27.970Z,0.00
2022-10-30T04:30:27.975Z,0.00
2022-10-30T04:31:28.023Z,0.00
2022-10-30T04:32:27.945Z,0.00
2022-10-30T04:33:27.952Z,0.00
2022-10-30T04:34:27.907Z,0.00
2022-10-30T04:35:27.917Z,0.00
2022-10-30T04:36:27.887Z,0.00
2022-10-30T04:37:27.905Z,0.00
2022-10-30T04:38:27.868Z,0.00
2022-10-30T04:39:27.927Z,0.00
2022-10-30T04:40:27.838Z,0.00
2022-10-30T04:41:27.848Z,0.00
2022-10-30T04:42:27.822Z,0.00
2022-10-30T04:43:27.844Z,0.00
2022-10-30T04:44:27.839Z,0.00
2022-10-30T04:45:27.806Z,0.00
2022-10-30T04:46:27.781Z,0.00
2022-10-30T04:47:27.821Z,0.00
2022-10-30T04:48:27.746Z,0.00
2022-10-30T04:49:27.756Z,0.00
2022-10-30T04:50:27.763Z,0.00
2022-10-30T04:51:27.734Z,0.00
2022-10-30T04:52:27.712Z,0.00
2022-10-30T04:53:27.707Z,0.00
2022-10-30T04:54:27.764Z,0.00
2022-10-30T04:55:27.716Z,0.00
2022-10-30T04:56:27.687Z,0.00
2022-10-30T04:57:27.669Z,0.00
2022-10-30T04:58:27.671Z,0.00
2022-10-30T04:59:27.662Z,0.00
2022-10-30T05:00:27.640Z,0.00
2022-10-30T05:01:27.811Z,0.00
2022-10-30T05:02:27.820Z,0.00
2022-10-30T05:03:27.617Z,0.00
2022-10-30T05:04:27.599Z,0.00
2022-10-30T05:05:27.611Z,0.00
2022-10-30T05:06:27.579Z,0.00
2022-10-30T05:07:27.573Z,0.00
2022-10-30T05:08:27.558Z,0.00
2022-10-30T05:09:27.543Z,0.00
2022-10-30T05:10:27.545Z,0.00
2022-10-30T05:11:27.625Z,0.00
2022-10-30T05:12:27.504Z,0.00
2022-10-30T05:13:27.501Z,0.00
2022-10-30T05:14:27.486Z,0.00
2022-10-30T05:15:27.494Z,0.00
2022-10-30T05:16:27.481Z,0.00
2022-10-30T05:17:27.544Z,0.00
2022-10-30T05:18:27.439Z,0.00
2022-10-30T05:19:27.452Z,0.00
2022-10-30T05:20:27.469Z,0.00
2022-10-30T05:21:27.585Z,0.00
2022-10-30T05:22:27.449Z,0.00
2022-10-30T05:23:27.462Z,0.00
2022-10-30T05:24:27.380Z,0.00
2022-10-30T05:25:27.537Z,0.00
2022-10-30T05:26:27.363Z,0.00
2022-10-30T05:27:27.373Z,0.00
2022-10-30T05:28:27.348Z,0.00
2022-10-30T05:29:27.337Z,0.00
2022-10-30T05:30:27.392Z,0.00
2022-10-30T05:31:27.379Z,0.00
2022-10-30T05:32:27.288Z,0.00
2022-10-30T05:33:27.308Z,0.00
2022-10-30T05:34:27.279Z,0.00
2022-10-30T05:35:27.275Z,0.00
2022-10-30T05:36:27.258Z,0.00
2022-10-30T05:37:27.245Z,0.00
2022-10-30T05:38:27.258Z,0.00
2022-10-30T05:39:27.234Z,0.00
2022-10-30T05:40:27.209Z,0.00
2022-10-30T05:41:27.570Z,0.00
2022-10-30T05:42:27.197Z,0.00
2022-10-30T05:43:27.189Z,0.00
2022-10-30T05:44:40.708Z,0.00
2022-10-30T05:45:27.167Z,0.00
2022-10-30T05:46:27.150Z,0.00
2022-10-30T05:47:27.147Z,0.00
2022-10-30T05:48:27.161Z,0.00
2022-10-30T05:49:27.127Z,0.00
2022-10-30T05:50:27.124Z,0.00
2022-10-30T05:51:27.101Z,0.00
2022-10-30T05:52:27.078Z,0.00
2022-10-30T05:53:27.059Z,1.00
2022-10-30T05:54:27.024Z,1.00
2022-10-30T05:55:27.133Z,0.00
2022-10-30T05:56:27.034Z,0.00
2022-10-30T05:57:27.003Z,2.00
2022-10-30T05:58:26.997Z,1.00
2022-10-30T05:59:26.962Z,1.00
2022-10-30T06:00:26.963Z,2.00
2022-10-30T06:01:27.114Z,3.00
2022-10-30T06:02:26.990Z,3.00
2022-10-30T06:03:26.948Z,6.00
2022-10-30T06:04:26.909Z,7.00
2022-10-30T06:05:26.890Z,7.00
2022-10-30T06:06:26.901Z,7.00
2022-10-30T06:07:26.888Z,10.00
2022-10-30T06:08:26.859Z,13.00
2022-10-30T06:09:26.875Z,14.00
2022-10-30T06:10:26.846Z,17.00
2022-10-30T06:11:26.842Z,20.00
2022-10-30T06:12:26.808Z,21.00
2022-10-30T06:13:26.814Z,28.00
2022-10-30T06:14:26.793Z,32.00
2022-10-30T06:15:26.977Z,38.00
2022-10-30T06:16:26.809Z,40.00
2022-10-30T06:17:26.810Z,44.00
2022-10-30T06:18:26.758Z,53.00
2022-10-30T06:19:26.750Z,56.00
2022-10-30T06:20:26.738Z,65.00
2022-10-30T06:21:26.820Z,72.00
2022-10-30T06:22:26.716Z,80.00
2022-10-30T06:23:26.711Z,84.00
2022-10-30T06:24:26.681Z,100.00
2022-10-30T06:25:26.685Z,105.00
2022-10-30T06:26:26.688Z,113.00
2022-10-30T06:27:26.672Z,123.00
2022-10-30T06:28:26.666Z,135.00
2022-10-30T06:29:26.669Z,145.00
2022-10-30T06:30:26.641Z,157.00
2022-10-30T06:31:26.628Z,168.00
2022-10-30T06:32:28.005Z,182.00
2022-10-30T06:33:26.605Z,196.00
2022-10-30T06:34:26.583Z,209.00
2022-10-30T06:35:26.595Z,217.00
2022-10-30T06:36:26.559Z,228.00
2022-10-30T06:37:26.617Z,240.00
2022-10-30T06:38:26.551Z,252.00
2022-10-30T06:39:26.560Z,268.00
2022-10-30T06:40:26.511Z,286.00
2022-10-30T06:41:30.312Z,301.00
2022-10-30T06:42:26.562Z,315.00
2022-10-30T06:43:26.501Z,330.00
2022-10-30T06:44:26.480Z,344.00
2022-10-30T06:45:26.475Z,358.00
2022-10-30T06:46:30.566Z,373.00
2022-10-30T06:47:26.479Z,390.00
2022-10-30T06:48:26.435Z,410.00
2022-10-30T06:49:26.431Z,421.00
2022-10-30T06:50:26.406Z,440.00
2022-10-30T06:51:26.407Z,453.00
2022-10-30T06:52:26.432Z,468.00
2022-10-30T06:53:26.394Z,490.00
2022-10-30T06:54:26.370Z,511.00
2022-10-30T06:55:26.367Z,519.00
2022-10-30T06:56:26.348Z,534.00
2022-10-30T06:57:26.349Z,556.00
2022-10-30T06:58:26.336Z,572.00
2022-10-30T06:59:26.348Z,593.00
2022-10-30T07:00:26.323Z,618.00
2022-10-30T07:01:26.347Z,642.00
2022-10-30T07:02:26.376Z,654.00
2022-10-30T07:03:26.293Z,677.00
2022-10-30T07:04:26.268Z,700.00
2022-10-30T07:05:26.274Z,723.00
2022-10-30T07:06:26.264Z,735.00
2022-10-30T07:07:26.294Z,743.00
2022-10-30T07:08:26.230Z,768.00
2022-10-30T07:09:26.224Z,791.00
2022-10-30T07:10:26.208Z,799.00
2022-10-30T07:11:26.229Z,819.00
2022-10-30T07:12:26.212Z,837.00
2022-10-30T07:13:26.184Z,845.00
2022-10-30T07:14:26.147Z,863.00
2022-10-30T07:15:26.149Z,893.00
2022-10-30T07:16:26.142Z,900.00
2022-10-30T07:17:26.125Z,915.00
2022-10-30T07:18:26.442Z,929.00
2022-10-30T07:19:26.105Z,946.00
2022-10-30T07:20:26.103Z,958.00
2022-10-30T07:21:26.113Z,965.00
2022-10-30T07:22:26.057Z,985.00
2022-10-30T07:23:26.077Z,999.00
2022-10-30T07:24:26.038Z,1014.00
2022-10-30T07:25:26.041Z,1026.00
2022-10-30T07:26:26.044Z,1038.00
2022-10-30T07:27:26.014Z,1051.00
2022-10-30T07:28:26.001Z,1066.00
2022-10-30T07:29:25.994Z,1075.00
2022-10-30T07:31:41.404Z,1111.00
2022-10-30T07:32:26.028Z,1118.00
2022-10-30T07:33:25.956Z,1140.00
2022-10-30T07:34:25.929Z,1160.00
2022-10-30T07:35:25.940Z,1182.00
2022-10-30T07:36:25.906Z,1201.00
2022-10-30T07:37:25.921Z,1219.00
2022-10-30T07:38:25.922Z,1244.00
2022-10-30T07:39:25.890Z,1273.00
2022-10-30T07:40:25.869Z,1279.00
2022-10-30T07:41:25.877Z,1292.00
2022-10-30T07:42:25.848Z,1316.00
2022-10-30T07:43:25.873Z,1298.00
2022-10-30T07:44:25.863Z,1328.00
2022-10-30T07:45:25.826Z,1337.00
2022-10-30T07:46:25.831Z,1353.00
2022-10-30T07:47:25.821Z,1357.00
2022-10-30T07:48:25.799Z,1368.00
2022-10-30T07:49:25.785Z,1372.00
2022-10-30T07:50:25.766Z,1372.00
2022-10-30T07:51:25.761Z,1400.00
2022-10-30T07:52:26.587Z,1365.00
2022-10-30T07:53:25.739Z,1398.00
2022-10-30T07:54:25.739Z,1412.00
2022-10-30T07:55:25.723Z,1458.00
2022-10-30T07:56:25.689Z,1438.00
2022-10-30T07:57:25.701Z,1406.00
2022-10-30T07:58:25.678Z,1347.00
2022-10-30T07:59:25.698Z,1464.00
2022-10-30T08:00:25.655Z,1545.00
2022-10-30T08:01:25.870Z,1557.00
2022-10-30T08:02:25.829Z,1616.00
2022-10-30T08:03:25.635Z,1513.00
2022-10-30T08:04:25.622Z,1548.00
2022-10-30T08:05:29.080Z,1591.00
2022-10-30T08:06:27.225Z,1660.00
2022-10-30T08:07:25.635Z,1688.00
2022-10-30T08:08:25.570Z,1681.00
2022-10-30T08:09:25.581Z,1680.00
2022-10-30T08:10:25.574Z,1737.00
2022-10-30T08:11:25.554Z,1675.00
2022-10-30T08:12:25.522Z,1809.00
2022-10-30T08:13:25.539Z,1808.00
2022-10-30T08:14:25.526Z,1890.00
2022-10-30T08:15:25.509Z,1863.00
2022-10-30T08:16:25.492Z,1998.00
2022-10-30T08:17:25.474Z,2036.00
2022-10-30T08:18:25.458Z,2107.00
2022-10-30T08:19:25.463Z,1955.00
2022-10-30T08:20:25.479Z,1975.00
2022-10-30T08:21:25.447Z,1974.00
2022-10-30T08:22:25.410Z,2003.00
2022-10-30T08:23:25.422Z,2009.00
2022-10-30T08:24:25.411Z,2101.00
2022-10-30T08:25:25.377Z,2099.00
2022-10-30T08:26:25.399Z,2100.00
2022-10-30T08:27:25.366Z,2208.00
2022-10-30T08:28:29.872Z,2212.00
2022-10-30T08:29:25.363Z,2272.00
2022-10-30T08:30:25.347Z,2306.00
2022-10-30T08:31:25.317Z,2405.00
2022-10-30T08:32:25.335Z,2149.00
2022-10-30T08:33:25.300Z,2368.00
2022-10-30T08:34:25.318Z,2420.00
2022-10-30T08:35:25.353Z,2465.00
2022-10-30T08:36:25.281Z,2534.00
2022-10-30T08:37:25.254Z,2493.00
2022-10-30T08:38:25.248Z,2739.00
2022-10-30T08:39:25.381Z,2383.00
2022-10-30T08:40:25.718Z,2491.00
2022-10-30T08:41:25.216Z,2583.00
2022-10-30T08:42:25.234Z,2604.00
2022-10-30T08:43:25.187Z,2747.00
2022-10-30T08:44:25.209Z,2676.00
2022-10-30T08:45:29.798Z,2787.00
2022-10-30T08:46:25.240Z,2831.00
2022-10-30T08:47:25.156Z,3070.00
2022-10-30T08:48:25.143Z,2846.00
2022-10-30T08:49:25.181Z,2814.00
2022-10-30T08:50:25.136Z,2974.00
2022-10-30T08:51:25.117Z,2892.00
2022-10-30T08:52:25.109Z,3134.00
2022-10-30T08:53:25.210Z,2836.00
2022-10-30T08:54:25.139Z,3242.00
2022-10-30T08:55:25.094Z,2915.00
2022-10-30T08:56:25.060Z,3518.00
2022-10-30T08:57:25.044Z,4581.00
2022-10-30T08:58:25.056Z,3505.00
2022-10-30T08:59:25.025Z,3327.00
2022-10-30T09:00:25.102Z,3431.00
2022-10-30T09:01:25.152Z,3311.00
2022-10-30T09:02:25.093Z,3391.00
2022-10-30T09:03:24.985Z,3289.00
2022-10-30T09:04:24.991Z,3599.00
2022-10-30T09:05:25.003Z,3700.00
2022-10-30T09:06:24.945Z,3461.00
2022-10-30T09:07:24.966Z,3532.00
2022-10-30T09:08:24.933Z,3670.00
2022-10-30T09:09:24.904Z,5236.00
2022-10-30T09:10:24.905Z,3981.00
2022-10-30T09:11:24.904Z,3283.00
2022-10-30T09:12:24.888Z,3944.00
2022-10-30T09:13:24.866Z,3179.00
2022-10-30T09:14:24.864Z,2693.00
2022-10-30T09:15:24.841Z,2975.00
2022-10-30T09:16:24.859Z,3311.00
2022-10-30T09:17:24.852Z,3335.00
2022-10-30T09:18:24.823Z,3255.00
2022-10-30T09:19:24.801Z,3179.00
2022-10-30T09:20:24.836Z,3237.00
2022-10-30T09:21:24.786Z,3959.00
2022-10-30T09:22:24.768Z,4196.00
2022-10-30T09:23:24.764Z,3669.00
2022-10-30T09:24:24.787Z,3525.00
2022-10-30T09:25:24.747Z,3503.00
2022-10-30T09:26:24.747Z,3378.00
2022-10-30T09:27:24.750Z,3390.00
2022-10-30T09:28:24.779Z,3668.00
2022-10-30T09:29:24.709Z,3460.00
2022-10-30T09:30:24.692Z,3707.00
2022-10-30T09:31:24.746Z,3836.00
2022-10-30T09:32:24.706Z,3269.00
2022-10-30T09:33:24.684Z,3619.00
2022-10-30T09:34:24.692Z,3775.00
2022-10-30T09:35:24.635Z,3873.00
2022-10-30T09:36:24.651Z,3553.00
2022-10-30T09:37:24.617Z,1932.00
2022-10-30T09:38:24.678Z,3805.00
2022-10-30T09:39:24.623Z,9666.00
2022-10-30T09:40:24.645Z,6230.00
2022-10-30T09:41:24.598Z,6396.00
2022-10-30T09:42:24.580Z,5663.00
2022-10-30T09:43:24.609Z,4029.00
2022-10-30T09:44:24.567Z,6347.00
2022-10-30T09:45:29.216Z,7952.00
2022-10-30T09:46:24.558Z,4136.00
2022-10-30T09:47:24.640Z,3529.00
2022-10-30T09:48:24.506Z,9903.00
2022-10-30T09:49:24.533Z,10361.00
2022-10-30T09:50:24.483Z,4876.00
2022-10-30T09:51:24.463Z,9799.00
2022-10-30T09:52:24.463Z,8561.00
2022-10-30T09:53:24.441Z,4439.00
2022-10-30T09:54:24.446Z,5514.00
2022-10-30T09:55:24.459Z,3464.00
2022-10-30T09:56:24.415Z,5107.00
2022-10-30T09:57:24.405Z,6264.00
2022-10-30T09:58:24.464Z,4958.00
2022-10-30T09:59:24.460Z,2477.00
2022-10-30T10:00:24.383Z,11389.00
2022-10-30T10:01:24.448Z,11919.00
2022-10-30T10:02:24.469Z,5715.00
2022-10-30T10:03:24.354Z,7883.00
2022-10-30T10:04:26.796Z,16401.00
2022-10-30T10:05:24.341Z,10235.00
2022-10-30T10:06:24.337Z,6939.00
2022-10-30T10:07:24.298Z,10426.00
2022-10-30T10:08:24.295Z,9994.00
2022-10-30T10:09:24.281Z,6158.00
2022-10-30T10:10:24.266Z,9768.00
2022-10-30T10:11:24.266Z,12809.00
2022-10-30T10:12:24.252Z,11478.00
2022-10-30T10:13:24.225Z,15017.00
2022-10-30T10:14:24.225Z,12530.00
2022-10-30T10:15:24.213Z,11120.00
2022-10-30T10:16:24.237Z,7180.00
2022-10-30T10:17:24.219Z,4346.00
2022-10-30T10:18:24.254Z,8428.00
2022-10-30T10:19:24.164Z,8366.00
2022-10-30T10:20:24.171Z,7286.00
2022-10-30T10:21:24.172Z,7846.00
2022-10-30T10:22:24.134Z,8447.00
2022-10-30T10:23:25.203Z,5669.00
2022-10-30T10:24:24.145Z,7337.00
2022-10-30T10:25:24.099Z,13198.00
2022-10-30T10:26:24.120Z,11777.00
2022-10-30T10:27:24.148Z,10363.00
2022-10-30T10:28:24.082Z,7724.00
2022-10-30T10:29:24.052Z,7952.00
2022-10-30T10:30:24.087Z,14534.00
2022-10-30T10:31:24.034Z,19040.00
2022-10-30T10:32:24.095Z,10344.00
2022-10-30T10:33:24.021Z,16179.00
2022-10-30T10:34:24.022Z,11644.00
2022-10-30T10:35:24.006Z,12141.00
2022-10-30T10:36:24.016Z,9728.00
2022-10-30T10:37:24.023Z,26261.00
2022-10-30T10:38:23.998Z,28663.00
2022-10-30T10:39:23.961Z,19316.00
2022-10-30T10:40:24.042Z,15126.00
2022-10-30T10:41:23.958Z,14357.00
2022-10-30T10:42:23.928Z,16976.00
2022-10-30T10:43:24.145Z,7312.00
2022-10-30T10:44:23.910Z,6430.00
2022-10-30T10:45:23.888Z,16224.00
2022-10-30T10:46:24.196Z,16163.00
2022-10-30T10:47:23.946Z,26549.00
2022-10-30T10:48:23.892Z,25739.00
2022-10-30T10:49:23.881Z,21803.00
2022-10-30T10:50:23.850Z,20269.00
2022-10-30T10:51:23.848Z,27440.00
2022-10-30T10:52:23.917Z,26485.00
2022-10-30T10:53:23.946Z,20853.00
2022-10-30T10:54:23.839Z,13332.00
2022-10-30T10:55:23.795Z,13375.00
2022-10-30T10:56:23.795Z,10552.00
2022-10-30T10:57:23.780Z,9034.00
2022-10-30T10:58:23.792Z,25529.00
2022-10-30T10:59:23.742Z,37606.00
2022-10-30T11:00:23.758Z,32267.00
2022-10-30T11:01:23.889Z,34175.00
2022-10-30T11:02:23.909Z,27639.00
2022-10-30T11:03:23.727Z,38640.00
2022-10-30T11:04:23.717Z,43835.00
2022-10-30T11:05:23.698Z,44120.00
2022-10-30T11:06:23.681Z,42781.00
2022-10-30T11:07:23.657Z,27106.00
2022-10-30T11:08:24.196Z,28025.00
2022-10-30T11:09:23.645Z,38345.00
2022-10-30T11:10:23.655Z,36755.00
2022-10-30T11:11:23.695Z,26164.00
2022-10-30T11:12:23.653Z,12583.00
2022-10-30T11:13:23.620Z,16057.00
2022-10-30T11:14:23.617Z,16681.00
2022-10-30T11:15:23.593Z,13601.00
2022-10-30T11:16:23.595Z,10876.00
2022-10-30T11:17:23.570Z,7082.00
2022-10-30T11:18:23.583Z,6307.00
2022-10-30T11:19:23.579Z,7186.00
2022-10-30T11:20:23.546Z,7562.00
2022-10-30T11:21:23.543Z,3605.00
2022-10-30T11:22:23.519Z,10204.00
2022-10-30T11:23:23.498Z,10010.00
2022-10-30T11:24:23.519Z,5539.00
2022-10-30T11:25:26.852Z,5697.00
2022-10-30T11:26:23.487Z,5786.00
2022-10-30T11:27:23.487Z,8089.00
2022-10-30T11:28:23.479Z,6908.00
2022-10-30T11:29:23.473Z,8194.00
2022-10-30T11:30:23.482Z,12794.00
2022-10-30T11:31:24.508Z,11713.00
2022-10-30T11:32:23.432Z,7710.00
2022-10-30T11:33:23.402Z,6342.00
2022-10-30T11:34:23.430Z,8657.00
2022-10-30T11:35:23.406Z,8157.00
2022-10-30T11:36:23.380Z,6949.00
2022-10-30T11:37:23.441Z,6577.00
2022-10-30T11:38:23.373Z,7214.00
2022-10-30T11:39:23.345Z,6807.00
2022-10-30T11:40:23.780Z,6138.00
2022-10-30T11:41:23.333Z,6126.00
2022-10-30T11:42:23.321Z,5746.00
2022-10-30T11:43:24.618Z,6347.00
2022-10-30T11:44:24.271Z,8954.00
2022-10-30T11:45:23.292Z,7273.00
2022-10-30T11:46:23.270Z,6359.00
2022-10-30T11:47:23.331Z,6220.00
2022-10-30T11:48:23.309Z,5720.00
2022-10-30T11:49:24.163Z,6177.00
2022-10-30T11:50:23.253Z,5832.00
2022-10-30T11:51:23.372Z,7070.00
2022-10-30T11:52:23.250Z,6966.00
2022-10-30T11:53:23.844Z,6841.00
2022-10-30T11:54:24.302Z,4286.00
2022-10-30T11:55:23.193Z,7971.00
2022-10-30T11:56:23.170Z,13005.00
2022-10-30T11:57:23.173Z,10252.00
2022-10-30T11:58:23.181Z,21944.00
2022-10-30T11:59:23.127Z,19887.00
2022-10-30T12:00:23.122Z,12776.00
2022-10-30T12:01:23.197Z,12275.00
2022-10-30T12:02:23.228Z,12120.00
2022-10-30T12:03:23.077Z,6137.00
2022-10-30T12:04:23.080Z,7717.00
2022-10-30T12:05:23.109Z,11619.00
2022-10-30T12:06:23.054Z,6926.00
2022-10-30T12:07:23.076Z,7399.00
2022-10-30T12:08:23.047Z,10236.00
2022-10-30T12:09:23.025Z,9329.00
2022-10-30T12:10:23.037Z,10056.00
2022-10-30T12:11:23.979Z,9386.00
2022-10-30T12:12:26.217Z,11950.00
2022-10-30T12:13:22.987Z,10861.00
2022-10-30T12:14:22.973Z,8218.00
2022-10-30T12:15:22.969Z,6854.00
2022-10-30T12:16:22.946Z,6337.00
2022-10-30T12:17:22.948Z,6141.00
2022-10-30T12:18:22.982Z,6147.00
2022-10-30T12:19:22.946Z,5823.00
2022-10-30T12:20:22.945Z,6128.00
2022-10-30T12:21:22.891Z,6791.00
2022-10-30T12:22:22.911Z,6297.00
2022-10-30T12:23:24.194Z,6791.00
2022-10-30T12:24:24.790Z,6672.00
2022-10-30T12:25:22.850Z,6665.00
2022-10-30T12:26:22.909Z,5886.00
2022-10-30T12:27:22.831Z,7351.00
2022-10-30T12:28:22.841Z,8864.00
2022-10-30T12:29:24.296Z,8754.00
2022-10-30T12:30:22.801Z,7946.00
2022-10-30T12:31:22.770Z,7488.00
2022-10-30T12:32:22.779Z,6696.00
2022-10-30T12:33:22.790Z,8624.00
2022-10-30T12:34:23.672Z,12175.00
2022-10-30T12:35:22.761Z,11278.00
2022-10-30T12:36:22.750Z,10201.00
2022-10-30T12:37:22.732Z,8861.00
2022-10-30T12:38:22.714Z,7817.00
2022-10-30T12:39:22.718Z,7829.00
2022-10-30T12:40:22.713Z,7484.00